createdAt,value
2022-12-09T00:01:13.239Z,20.77
2022-12-09T00:03:41.374Z,19.67
2022-12-09T00:06:11.401Z,21.20
2022-12-09T00:08:38.524Z,20.02
2022-12-09T00:11:07.857Z,20.42
2022-12-09T00:13:36.614Z,20.55
2022-12-09T00:16:09.387Z,21.60
2022-12-09T00:18:36.727Z,21.80
2022-12-09T00:21:19.504Z,21.95
2022-12-09T00:23:47.368Z,20.88
2022-12-09T00:26:15.556Z,18.92
2022-12-09T00:28:43.608Z,18.65
2022-12-09T00:31:14.338Z,20.50
2022-12-09T00:33:45.061Z,19.48
2022-12-09T00:36:15.190Z,19.73
2022-12-09T00:38:43.132Z,20.20
2022-12-09T00:41:11.794Z,18.65
2022-12-09T00:43:42.038Z,20.50
2022-12-09T00:46:10.644Z,19.95
2022-12-09T00:48:38.675Z,19.25
2022-12-09T00:51:12.692Z,20.60
2022-12-09T00:53:40.629Z,20.48
2022-12-09T00:56:08.954Z,20.20
2022-12-09T00:58:36.956Z,19.33
2022-12-09T01:01:05.912Z,18.65
2022-12-09T01:03:33.418Z,20.33
2022-12-09T01:06:01.220Z,20.58
2022-12-09T01:08:28.656Z,20.45
2022-12-09T01:10:55.909Z,18.52
2022-12-09T01:13:23.774Z,19.58
2022-12-09T01:15:50.943Z,20.15
2022-12-09T01:18:18.000Z,20.10
2022-12-09T01:20:45.166Z,19.92
2022-12-09T01:23:12.649Z,20.45
2022-12-09T01:25:39.995Z,19.02
2022-12-09T01:28:07.299Z,20.67
2022-12-09T01:30:34.488Z,18.52
2022-12-09T01:33:01.899Z,19.17
2022-12-09T01:35:29.379Z,18.75
2022-12-09T01:37:56.828Z,19.02
2022-12-09T01:40:24.289Z,19.45
2022-12-09T01:42:51.574Z,19.88
2022-12-09T01:45:22.319Z,20.17
2022-12-09T01:47:56.607Z,19.13
2022-12-09T01:50:26.593Z,19.63
2022-12-09T01:52:56.340Z,18.98
2022-12-09T01:55:25.894Z,19.27
2022-12-09T01:57:53.592Z,18.55
2022-12-09T02:00:21.568Z,19.92
2022-12-09T02:02:52.428Z,18.83
2022-12-09T02:05:21.795Z,18.23
2022-12-09T02:07:54.548Z,19.27
2022-12-09T02:10:22.553Z,20.02
2022-12-09T02:13:26.467Z,18.85
2022-12-09T02:15:58.933Z,17.25
2022-12-09T02:18:42.804Z,18.13
2022-12-09T02:21:41.047Z,17.77
2022-12-09T02:27:17.729Z,18.58
2022-12-09T02:29:57.773Z,19.20
2022-12-09T02:32:56.128Z,18.35
2022-12-09T02:35:39.630Z,17.65
2022-12-09T02:38:11.983Z,18.00
2022-12-09T02:41:15.759Z,19.10
2022-12-09T02:43:50.932Z,18.23
2022-12-09T02:46:26.659Z,18.02
2022-12-09T02:48:59.241Z,18.65
2022-12-09T02:51:30.935Z,16.80
2022-12-09T02:54:04.128Z,18.33
2022-12-09T02:56:35.823Z,19.00
2022-12-09T02:59:03.707Z,19.17
2022-12-09T03:01:50.030Z,18.42
2022-12-09T03:04:25.590Z,17.30
2022-12-09T03:06:57.981Z,18.52
2022-12-09T03:11:57.785Z,17.88
2022-12-09T03:14:31.805Z,18.85
2022-12-09T03:17:09.001Z,17.42
2022-12-09T03:19:41.005Z,18.33
2022-12-09T03:22:13.733Z,17.95
2022-12-09T03:24:54.420Z,19.52
2022-12-09T03:27:34.399Z,18.40
2022-12-09T03:30:04.652Z,16.85
2022-12-09T03:32:33.959Z,18.38
2022-12-09T03:35:10.571Z,17.85
2022-12-09T03:37:40.927Z,17.83
2022-12-09T03:40:14.286Z,17.95
2022-12-09T03:42:53.495Z,17.70
2022-12-09T03:45:23.668Z,18.08
2022-12-09T03:47:52.110Z,17.80
2022-12-09T03:50:21.893Z,17.60
2022-12-09T03:52:54.250Z,18.80
2022-12-09T03:55:28.248Z,18.00
2022-12-09T03:57:58.142Z,17.92
2022-12-09T04:00:27.644Z,20.95
2022-12-09T04:02:56.250Z,19.23
2022-12-09T04:05:23.410Z,18.98
2022-12-09T04:07:54.207Z,18.45
2022-12-09T04:10:21.218Z,19.15
2022-12-09T04:12:48.289Z,19.33
2022-12-09T04:15:15.330Z,17.98
2022-12-09T04:17:45.529Z,19.73
2022-12-09T04:20:13.573Z,19.33
2022-12-09T04:22:42.261Z,18.75
2022-12-09T04:25:10.292Z,18.27
2022-12-09T04:27:38.289Z,17.73
2022-12-09T04:30:07.211Z,19.30
2022-12-09T04:32:37.286Z,19.13
2022-12-09T04:35:05.008Z,19.30
2022-12-09T04:37:32.714Z,19.38
2022-12-09T04:40:00.415Z,19.02
2022-12-09T04:42:29.104Z,19.15
2022-12-09T04:44:56.546Z,19.20
2022-12-09T04:47:24.392Z,19.77
2022-12-09T04:49:51.798Z,18.73
2022-12-09T04:52:20.538Z,18.95
2022-12-09T04:54:50.359Z,18.80
2022-12-09T04:57:18.576Z,18.17
2022-12-09T04:59:45.965Z,19.25
2022-12-09T05:02:13.530Z,17.55
2022-12-09T05:04:42.937Z,18.85
2022-12-09T05:07:11.844Z,17.75
2022-12-09T05:09:39.785Z,17.83
2022-12-09T05:12:07.427Z,18.08
2022-12-09T05:14:34.491Z,18.65
2022-12-09T05:17:03.814Z,17.30
2022-12-09T05:19:31.584Z,16.48
2022-12-09T05:21:59.431Z,18.02
2022-12-09T05:24:26.646Z,18.80
2022-12-09T05:26:53.732Z,18.67
2022-12-09T05:29:22.989Z,18.33
2022-12-09T05:31:51.942Z,19.50
2022-12-09T05:34:21.248Z,18.17
2022-12-09T05:36:48.658Z,19.30
2022-12-09T05:39:16.101Z,19.83
2022-12-09T05:41:43.597Z,19.52
2022-12-09T05:44:15.307Z,20.27
2022-12-09T05:46:42.883Z,19.52
2022-12-09T05:49:11.029Z,20.40
2022-12-09T05:51:38.529Z,18.60
2022-12-09T05:54:06.614Z,17.55
2022-12-09T05:56:34.553Z,18.00
2022-12-09T05:59:02.525Z,19.58
2022-12-09T06:01:29.987Z,19.38
2022-12-09T06:03:57.886Z,19.25
2022-12-09T06:06:28.443Z,19.92
2022-12-09T06:08:58.748Z,20.08
2022-12-09T06:11:27.044Z,17.90
2022-12-09T06:13:56.150Z,18.92
2022-12-09T06:16:23.730Z,18.08
2022-12-09T06:18:52.561Z,17.58
2022-12-09T06:21:21.205Z,19.20
2022-12-09T06:23:49.748Z,19.38
2022-12-09T06:26:23.846Z,19.70
2022-12-09T06:28:52.298Z,20.30
2022-12-09T06:31:19.853Z,19.90
2022-12-09T06:33:57.212Z,21.33
2022-12-09T06:36:26.378Z,19.90
2022-12-09T06:38:55.556Z,21.63
2022-12-09T06:41:23.231Z,20.90
2022-12-09T06:43:50.754Z,22.60
2022-12-09T06:46:26.095Z,22.40
2022-12-09T06:48:55.040Z,27.80
2022-12-09T06:51:24.665Z,25.00
2022-12-09T06:53:53.406Z,26.08
2022-12-09T06:56:21.110Z,25.90
2022-12-09T06:58:49.135Z,26.38
2022-12-09T07:01:20.945Z,26.83
2022-12-09T07:03:53.218Z,27.85
2022-12-09T07:06:34.545Z,29.13
2022-12-09T07:09:05.610Z,29.13
2022-12-09T07:11:33.684Z,25.58
2022-12-09T07:14:01.407Z,24.17
2022-12-09T07:16:30.231Z,26.80
2022-12-09T07:18:58.326Z,22.38
2022-12-09T07:21:26.281Z,25.05
2022-12-09T07:23:53.432Z,26.80
2022-12-09T07:26:23.571Z,26.95
2022-12-09T07:28:51.291Z,28.13
2022-12-09T07:31:43.749Z,29.55
2022-12-09T07:34:11.797Z,28.42
2022-12-09T07:36:40.595Z,28.90
2022-12-09T07:39:13.387Z,25.60
2022-12-09T07:41:40.806Z,26.75
2022-12-09T07:44:08.672Z,22.77
2022-12-09T07:46:36.650Z,25.80
2022-12-09T07:49:06.360Z,26.05
2022-12-09T07:51:34.185Z,28.10
2022-12-09T07:54:01.724Z,26.48
2022-12-09T07:56:29.545Z,24.08
2022-12-09T07:58:57.735Z,24.67
2022-12-09T08:01:30.214Z,28.70
2022-12-09T08:03:58.219Z,28.00
2022-12-09T08:06:30.213Z,26.17
2022-12-09T08:09:02.270Z,27.73
2022-12-09T08:11:33.027Z,25.35
2022-12-09T08:14:08.899Z,25.38
2022-12-09T08:16:38.415Z,27.55
2022-12-09T08:19:06.199Z,28.15
2022-12-09T08:21:34.445Z,28.20
2022-12-09T08:24:06.095Z,26.92
2022-12-09T08:26:35.238Z,28.63
2022-12-09T08:29:02.753Z,28.40
2022-12-09T08:31:31.488Z,29.98
2022-12-09T08:34:04.617Z,26.25
2022-12-09T08:36:33.143Z,24.80
2022-12-09T08:39:02.079Z,27.05
2022-12-09T08:41:39.076Z,24.45
2022-12-09T08:44:19.421Z,25.98
2022-12-09T08:46:50.056Z,25.50
2022-12-09T08:49:22.347Z,25.17
2022-12-09T08:51:52.758Z,23.63
2022-12-09T08:54:20.181Z,23.27
2022-12-09T08:56:49.995Z,25.70
2022-12-09T08:59:18.511Z,25.25
2022-12-09T09:02:04.890Z,22.35
2022-12-09T09:04:33.929Z,23.45
2022-12-09T09:07:01.602Z,21.52
2022-12-09T09:09:29.304Z,22.05
2022-12-09T09:11:57.279Z,21.60
2022-12-09T09:14:25.695Z,24.13
2022-12-09T09:16:52.787Z,24.33
2022-12-09T09:19:25.742Z,23.55
2022-12-09T09:21:54.085Z,21.95
2022-12-09T09:24:26.849Z,21.92
2022-12-09T09:26:54.201Z,21.42
2022-12-09T09:29:23.791Z,22.75
2022-12-09T09:31:55.219Z,21.35
2022-12-09T09:34:25.927Z,22.10
2022-12-09T09:36:54.111Z,23.08
2022-12-09T09:39:22.290Z,21.83
2022-12-09T09:41:53.487Z,23.33
2022-12-09T09:44:41.161Z,22.30
2022-12-09T09:47:41.662Z,22.25
2022-12-09T09:50:38.874Z,23.75
2022-12-09T09:53:24.067Z,22.65
2022-12-09T09:56:00.731Z,24.35
2022-12-09T09:58:59.563Z,22.42
2022-12-09T10:01:32.533Z,22.75
2022-12-09T10:04:28.746Z,24.48
2022-12-09T10:07:11.739Z,24.95
2022-12-09T10:09:53.194Z,25.60
2022-12-09T10:12:51.527Z,25.40
2022-12-09T10:15:29.755Z,22.67
2022-12-09T10:18:21.340Z,24.60
2022-12-09T10:20:49.649Z,25.20
2022-12-09T10:23:18.175Z,23.92
2022-12-09T10:25:53.840Z,24.98
2022-12-09T10:28:23.139Z,24.95
2022-12-09T10:30:52.535Z,23.88
2022-12-09T10:33:28.388Z,26.02
2022-12-09T10:35:56.935Z,22.95
2022-12-09T10:38:26.930Z,23.30
2022-12-09T10:40:59.792Z,25.52
2022-12-09T10:43:38.668Z,23.88
2022-12-09T10:46:24.910Z,23.23
2022-12-09T10:48:59.056Z,25.23
2022-12-09T10:51:35.502Z,22.90
2022-12-09T10:54:33.030Z,24.42
2022-12-09T10:57:28.299Z,23.65
2022-12-09T11:00:20.192Z,24.20
2022-12-09T11:02:55.628Z,22.55
2022-12-09T11:05:35.813Z,23.02
2022-12-09T11:08:04.237Z,25.17
2022-12-09T11:10:33.211Z,23.08
2022-12-09T11:13:06.385Z,24.42
2022-12-09T11:15:39.754Z,26.60
2022-12-09T11:18:31.204Z,26.65
2022-12-09T11:21:08.042Z,27.58
2022-12-09T11:23:37.641Z,25.20
2022-12-09T11:26:21.648Z,24.25
2022-12-09T11:29:01.674Z,24.80
2022-12-09T11:31:33.803Z,24.33
2022-12-09T11:34:05.298Z,23.55
2022-12-09T11:36:42.210Z,22.98
2022-12-09T11:39:21.289Z,23.05
2022-12-09T11:42:17.414Z,21.30
2022-12-09T11:44:48.351Z,20.73
2022-12-09T11:47:27.512Z,22.42
2022-12-09T11:50:08.456Z,23.42
2022-12-09T11:52:36.176Z,20.90
2022-12-09T11:55:03.425Z,21.88
2022-12-09T11:57:57.691Z,21.05
2022-12-09T12:00:47.939Z,21.33
2022-12-09T12:03:23.764Z,23.40
2022-12-09T12:05:55.061Z,24.27
2022-12-09T12:08:27.509Z,31.10
2022-12-09T12:11:10.469Z,24.60
2022-12-09T12:13:54.347Z,25.38
2022-12-09T12:16:45.732Z,24.45
2022-12-09T12:19:35.474Z,27.13
2022-12-09T12:22:19.115Z,26.75
2022-12-09T12:25:27.486Z,24.40
2022-12-09T12:28:31.021Z,25.70
2022-12-09T12:31:11.729Z,23.42
2022-12-09T12:34:07.936Z,26.33
2022-12-09T12:36:46.508Z,27.30
2022-12-09T12:39:32.810Z,25.58
2022-12-09T12:42:34.860Z,25.50
2022-12-09T12:45:22.447Z,24.67
2022-12-09T12:47:56.136Z,26.10
2022-12-09T12:50:50.963Z,26.27
2022-12-09T12:53:39.384Z,24.83
2022-12-09T13:01:52.739Z,24.90
2022-12-09T13:05:05.033Z,27.13
2022-12-09T13:07:41.711Z,24.13
2022-12-09T13:10:47.109Z,26.08
2022-12-09T13:14:08.318Z,24.35
2022-12-09T14:03:34.062Z,27.38
2022-12-09T14:08:51.948Z,24.88
2022-12-09T14:11:39.228Z,25.05
2022-12-09T14:14:24.798Z,25.92
2022-12-09T14:16:54.960Z,29.55
2022-12-09T14:19:49.191Z,28.70
2022-12-09T14:22:22.238Z,27.05
2022-12-09T14:24:59.410Z,28.67
2022-12-09T14:27:33.094Z,27.80
2022-12-09T14:30:18.959Z,27.45
2022-12-09T14:32:49.350Z,25.48
2022-12-09T14:35:21.119Z,27.73
2022-12-09T14:37:59.891Z,28.58
2022-12-09T14:41:05.424Z,26.60
2022-12-09T14:44:07.999Z,26.02
2022-12-09T14:46:39.491Z,25.85
2022-12-09T14:49:25.411Z,25.77
2022-12-09T14:52:04.646Z,27.20
2022-12-09T14:54:44.692Z,25.30
2022-12-09T14:57:32.474Z,27.75
2022-12-09T14:59:59.672Z,28.65
2022-12-09T15:02:30.127Z,25.88
2022-12-09T15:05:30.749Z,24.85
2022-12-09T15:07:57.976Z,26.70
2022-12-09T15:10:38.249Z,25.08
2022-12-09T15:13:06.301Z,27.15
2022-12-09T15:15:36.588Z,27.33
2022-12-09T15:18:24.778Z,26.75
2022-12-09T15:21:04.808Z,27.38
2022-12-09T15:23:36.369Z,26.08
2022-12-09T15:26:38.294Z,20.13
2022-12-09T15:29:06.957Z,25.23
2022-12-09T15:31:35.330Z,25.95
2022-12-09T15:34:14.539Z,27.20
2022-12-09T15:36:52.202Z,25.25
2022-12-09T15:39:25.608Z,24.85
2022-12-09T15:42:09.671Z,24.30
2022-12-09T15:44:40.750Z,27.30
2022-12-09T15:47:16.334Z,28.30
2022-12-09T15:49:54.698Z,26.42
2022-12-09T15:52:27.694Z,27.48
2022-12-09T15:54:56.443Z,27.15
2022-12-09T15:57:24.344Z,25.85
2022-12-09T15:59:56.162Z,24.95
2022-12-09T16:02:28.261Z,24.90
2022-12-09T16:05:00.778Z,26.23
2022-12-09T16:07:32.912Z,25.65
2022-12-09T16:10:08.777Z,25.60
2022-12-09T16:12:36.718Z,25.48
2022-12-09T16:15:06.657Z,27.08
2022-12-09T16:17:55.100Z,24.75
2022-12-09T16:20:41.264Z,26.35
2022-12-09T16:23:23.805Z,27.73
2022-12-09T16:25:51.224Z,26.15
2022-12-09T16:28:23.853Z,25.73
2022-12-09T16:30:54.663Z,26.45
2022-12-09T16:33:24.535Z,26.48
2022-12-09T16:35:59.808Z,26.25
2022-12-09T16:38:27.093Z,26.35
2022-12-09T16:40:54.176Z,28.77
2022-12-09T16:43:26.445Z,26.08
2022-12-09T16:45:55.544Z,27.13
2022-12-09T16:48:24.738Z,26.77
2022-12-09T16:51:11.711Z,24.95
2022-12-09T16:53:45.142Z,22.77
2022-12-09T16:56:25.056Z,24.08
2022-12-09T16:58:54.181Z,24.55
2022-12-09T17:01:25.483Z,22.73
2022-12-09T17:04:18.181Z,22.80
2022-12-09T17:06:45.812Z,21.25
2022-12-09T17:09:13.961Z,22.67
2022-12-09T17:11:47.080Z,20.10
2022-12-09T17:14:16.475Z,19.52
2022-12-09T17:16:43.706Z,18.42
2022-12-09T17:19:12.967Z,18.95
2022-12-09T17:21:40.149Z,21.30
2022-12-09T17:24:08.296Z,22.17
2022-12-09T17:26:35.796Z,20.75
2022-12-09T17:29:03.415Z,20.48
2022-12-09T17:31:30.691Z,19.30
2022-12-09T17:33:58.521Z,19.88
2022-12-09T17:36:26.082Z,19.17
2022-12-09T17:38:53.373Z,19.33
2022-12-09T17:41:23.696Z,19.05
2022-12-09T17:43:50.999Z,20.02
2022-12-09T17:46:18.536Z,18.15
2022-12-09T17:48:45.922Z,20.63
2022-12-09T17:51:18.090Z,19.67
2022-12-09T17:53:46.500Z,18.58
2022-12-09T17:56:19.881Z,21.95
2022-12-09T17:58:48.240Z,21.50
2022-12-09T18:01:21.833Z,20.83
2022-12-09T18:03:58.538Z,23.35
2022-12-09T18:06:31.194Z,20.23
2022-12-09T18:08:58.317Z,20.13
2022-12-09T18:11:26.808Z,20.52
2022-12-09T18:13:54.113Z,17.90
2022-12-09T18:16:21.585Z,20.73
2022-12-09T18:18:49.840Z,21.85
2022-12-09T18:21:19.960Z,21.20
2022-12-09T18:23:48.622Z,19.92
2022-12-09T18:26:18.435Z,19.27
2022-12-09T18:28:45.968Z,20.88
2022-12-09T18:31:15.950Z,20.35
2022-12-09T18:33:43.237Z,19.75
2022-12-09T18:36:14.043Z,19.17
2022-12-09T18:38:41.712Z,19.80
2022-12-09T18:41:20.969Z,18.83
2022-12-09T18:43:50.263Z,19.23
2022-12-09T18:46:24.960Z,19.98
2022-12-09T18:49:07.171Z,20.00
2022-12-09T18:51:34.903Z,21.73
2022-12-09T18:54:03.977Z,21.13
2022-12-09T18:56:34.037Z,20.65
2022-12-09T18:59:09.462Z,21.02
2022-12-09T19:01:40.806Z,22.05
2022-12-09T19:04:25.171Z,20.38
2022-12-09T19:06:55.238Z,20.38
2022-12-09T19:09:28.661Z,20.88
2022-12-09T19:11:56.941Z,20.95
2022-12-09T19:14:24.626Z,20.77
2022-12-09T19:16:52.799Z,21.42
2022-12-09T19:19:25.307Z,19.98
2022-12-09T19:21:53.912Z,19.77
2022-12-09T19:24:24.004Z,20.45
2022-12-09T19:26:53.626Z,22.00
2022-12-09T19:29:25.796Z,22.92
2022-12-09T19:34:26.995Z,20.90
2022-12-09T19:36:56.382Z,22.13
2022-12-09T19:39:30.038Z,22.17
2022-12-09T19:41:59.273Z,22.63
2022-12-09T19:47:14.665Z,21.60
2022-12-09T19:49:44.377Z,21.60
2022-12-09T19:52:13.234Z,22.13
2022-12-09T19:54:40.548Z,21.10
2022-12-09T19:57:08.442Z,20.70
2022-12-09T19:59:36.051Z,22.85
2022-12-09T20:02:03.373Z,22.95
2022-12-09T20:07:19.292Z,20.95
2022-12-09T20:09:46.456Z,22.50
2022-12-09T20:12:14.131Z,22.92
2022-12-09T20:14:42.115Z,22.70
2022-12-09T20:17:09.132Z,22.10
2022-12-09T20:19:36.886Z,23.88
2022-12-09T20:22:04.555Z,20.95
2022-12-09T20:24:31.564Z,22.73
2022-12-09T20:26:59.165Z,24.00
2022-12-09T20:29:26.313Z,21.85
2022-12-09T20:31:54.156Z,20.77
2022-12-09T20:34:21.345Z,23.35
2022-12-09T20:36:48.673Z,20.95
2022-12-09T20:39:21.068Z,21.08
2022-12-09T20:41:49.904Z,21.42
2022-12-09T20:44:19.974Z,22.77
2022-12-09T20:46:52.281Z,23.00
2022-12-09T20:49:25.760Z,23.50
2022-12-09T20:51:53.858Z,22.52
2022-12-09T20:54:22.921Z,24.58
2022-12-09T20:56:50.441Z,24.30
2022-12-09T20:59:17.560Z,23.10
2022-12-09T21:01:47.264Z,24.23
2022-12-09T21:04:15.772Z,23.67
2022-12-09T21:06:44.216Z,22.70
2022-12-09T21:09:15.034Z,24.13
2022-12-09T21:11:42.137Z,21.58
2022-12-09T21:14:12.042Z,26.05
2022-12-09T21:16:42.870Z,24.35
2022-12-09T21:19:13.572Z,25.10
2022-12-09T21:21:45.293Z,23.92
2022-12-09T21:24:14.146Z,24.30
2022-12-09T21:26:42.317Z,25.52
2022-12-09T21:29:11.441Z,25.88
2022-12-09T21:31:41.070Z,25.83
2022-12-09T21:34:10.332Z,25.13
2022-12-09T21:36:39.863Z,26.83
2022-12-09T21:39:07.924Z,24.00
2022-12-09T21:41:37.712Z,23.73
2022-12-09T21:44:06.296Z,25.65
2022-12-09T21:46:36.730Z,27.10
2022-12-09T21:49:06.731Z,22.67
2022-12-09T21:51:35.098Z,22.20
2022-12-09T21:54:02.508Z,21.38
2022-12-09T21:56:32.913Z,23.05
2022-12-09T21:59:00.971Z,20.75
2022-12-09T22:01:31.545Z,22.10
2022-12-09T22:04:01.636Z,20.50
2022-12-09T22:06:29.403Z,22.52
2022-12-09T22:09:01.617Z,23.58
2022-12-09T22:11:31.710Z,21.88
2022-12-09T22:14:00.714Z,21.70
2022-12-09T22:16:31.456Z,21.80
2022-12-09T22:18:59.968Z,21.90
2022-12-09T22:21:29.817Z,23.13
2022-12-09T22:24:03.084Z,23.45
2022-12-09T22:26:31.188Z,23.08
2022-12-09T22:29:03.834Z,22.83
2022-12-09T22:31:37.540Z,21.08
2022-12-09T22:34:15.762Z,22.58
2022-12-09T22:36:43.547Z,21.58
2022-12-09T22:39:18.084Z,22.58
2022-12-09T22:41:46.158Z,22.85
2022-12-09T22:44:15.797Z,23.33
2022-12-09T22:46:43.826Z,23.77
2022-12-09T22:49:13.601Z,21.45
2022-12-09T22:51:41.540Z,20.98
2022-12-09T22:54:10.170Z,22.23
2022-12-09T22:56:39.003Z,22.00
2022-12-09T22:59:06.358Z,21.92
2022-12-09T23:01:36.646Z,22.17
2022-12-09T23:04:05.761Z,24.27
2022-12-09T23:06:35.812Z,23.52
2022-12-09T23:09:03.732Z,23.98
2022-12-09T23:11:30.890Z,23.05
2022-12-09T23:13:59.813Z,23.90
2022-12-09T23:16:27.741Z,22.98
2022-12-09T23:18:59.199Z,22.67
2022-12-09T23:21:32.771Z,24.60
2022-12-09T23:24:03.192Z,23.30
2022-12-09T23:26:32.262Z,22.98
2022-12-09T23:29:01.181Z,22.52
2022-12-09T23:31:33.061Z,24.27
2022-12-09T23:34:02.804Z,26.48
2022-12-09T23:36:33.445Z,22.42
2022-12-09T23:39:02.571Z,23.05
2022-12-09T23:41:30.365Z,23.70
2022-12-09T23:43:57.639Z,22.73
2022-12-09T23:46:26.530Z,22.90
2022-12-09T23:48:55.586Z,24.35
2022-12-09T23:51:26.711Z,22.58
2022-12-09T23:53:57.263Z,22.80
2022-12-09T23:56:26.649Z,22.42
2022-12-09T23:58:56.126Z,19.17
